createdAt,value
2022-08-28T00:01:33.678Z,23.02
2022-08-28T00:06:36.255Z,22.51
2022-08-28T00:11:39.548Z,21.69
2022-08-28T00:16:42.539Z,21.64
2022-08-28T00:21:46.183Z,22.64
2022-08-28T00:27:07.317Z,23.10
2022-08-28T00:32:09.873Z,23.31
2022-08-28T00:37:12.568Z,23.61
2022-08-28T00:42:15.339Z,23.75
2022-08-28T00:47:17.975Z,23.67
2022-08-28T00:52:24.360Z,23.46
2022-08-28T00:57:28.764Z,22.13
2022-08-28T01:02:32.383Z,21.13
2022-08-28T01:07:35.639Z,22.37
2022-08-28T01:12:38.930Z,22.73
2022-08-28T01:17:46.196Z,22.78
2022-08-28T01:23:15.829Z,23.17
2022-08-28T01:28:18.622Z,22.85
2022-08-28T01:33:28.100Z,22.22
2022-08-28T01:38:30.837Z,21.47
2022-08-28T01:43:33.767Z,22.30
2022-08-28T01:48:40.425Z,22.92
2022-08-28T01:53:46.444Z,23.27
2022-08-28T01:58:49.262Z,23.18
2022-08-28T02:03:53.187Z,23.27
2022-08-28T02:08:55.844Z,23.36
2022-08-28T02:13:59.247Z,23.61
2022-08-28T02:19:02.907Z,23.76
2022-08-28T02:24:05.630Z,23.89
2022-08-28T02:29:08.120Z,23.95
2022-08-28T02:34:11.538Z,24.00
2022-08-28T02:39:14.084Z,23.99
2022-08-28T02:44:17.400Z,23.87
2022-08-28T02:49:19.936Z,23.74
2022-08-28T02:54:22.531Z,23.85
2022-08-28T02:59:25.166Z,23.90
2022-08-28T03:04:28.703Z,24.00
2022-08-28T03:09:31.416Z,24.08
2022-08-28T03:14:34.347Z,23.85
2022-08-28T03:19:36.817Z,23.90
2022-08-28T03:24:39.435Z,24.10
2022-08-28T03:29:42.192Z,23.85
2022-08-28T03:34:45.092Z,23.95
2022-08-28T03:39:47.650Z,24.22
2022-08-28T03:44:50.166Z,24.02
2022-08-28T03:49:59.171Z,23.84
2022-08-28T03:55:01.858Z,24.00
2022-08-28T04:00:08.896Z,24.08
2022-08-28T04:05:14.845Z,24.10
2022-08-28T04:10:17.382Z,23.99
2022-08-28T04:15:21.371Z,23.59
2022-08-28T04:20:24.201Z,23.80
2022-08-28T04:25:27.339Z,23.94
2022-08-28T04:30:29.879Z,23.69
2022-08-28T04:35:32.341Z,23.91
2022-08-28T04:40:38.220Z,24.13
2022-08-28T04:45:45.544Z,24.06
2022-08-28T04:50:49.334Z,24.09
2022-08-28T04:55:54.986Z,24.14
2022-08-28T05:00:58.064Z,24.23
2022-08-28T05:06:00.547Z,24.24
2022-08-28T05:11:32.913Z,24.29
2022-08-28T05:16:46.715Z,24.22
2022-08-28T05:21:49.867Z,24.01
2022-08-28T05:26:52.395Z,24.09
2022-08-28T05:31:55.007Z,24.15
2022-08-28T05:36:58.260Z,23.97
2022-08-28T05:42:00.934Z,24.08
2022-08-28T05:47:03.493Z,24.06
2022-08-28T05:52:06.177Z,24.20
2022-08-28T05:57:08.639Z,24.32
2022-08-28T06:02:11.346Z,24.31
2022-08-28T06:07:15.522Z,24.34
2022-08-28T06:12:18.285Z,24.42
2022-08-28T06:17:23.576Z,24.43
2022-08-28T06:22:26.743Z,24.44
2022-08-28T06:27:30.080Z,24.35
2022-08-28T06:32:32.627Z,24.35
2022-08-28T06:37:35.155Z,24.45
2022-08-28T06:42:37.669Z,24.47
2022-08-28T06:47:40.169Z,24.45
2022-08-28T06:52:42.637Z,24.42
2022-08-28T06:57:45.105Z,24.51
2022-08-28T07:02:47.603Z,24.66
2022-08-28T07:07:50.164Z,24.65
2022-08-28T07:12:52.649Z,24.60
2022-08-28T07:17:55.138Z,24.62
2022-08-28T07:22:59.607Z,24.71
2022-08-28T07:28:02.366Z,24.74
2022-08-28T07:33:04.883Z,24.28
2022-08-28T07:38:07.358Z,24.45
2022-08-28T07:43:28.544Z,24.72
2022-08-28T07:48:30.996Z,24.72
2022-08-28T07:53:36.533Z,24.75
2022-08-28T07:58:39.557Z,24.71
2022-08-28T08:03:42.289Z,24.79
2022-08-28T08:08:46.383Z,24.92
2022-08-28T08:13:50.965Z,25.01
2022-08-28T08:18:54.151Z,25.04
2022-08-28T08:23:56.767Z,24.96
2022-08-28T08:29:00.248Z,25.05
2022-08-28T08:34:04.670Z,24.98
2022-08-28T08:39:09.763Z,25.13
2022-08-28T08:44:21.382Z,25.05
2022-08-28T08:49:31.543Z,25.01
2022-08-28T08:54:34.283Z,24.93
2022-08-28T08:59:39.156Z,25.08
2022-08-28T09:05:06.872Z,25.35
2022-08-28T09:10:13.759Z,25.55
2022-08-28T09:15:28.584Z,26.33
2022-08-28T09:20:33.098Z,27.77
2022-08-28T09:26:03.918Z,27.58
2022-08-28T09:31:09.892Z,27.39
2022-08-28T09:36:27.761Z,26.42
2022-08-28T09:41:49.577Z,26.24
2022-08-28T09:46:52.515Z,26.42
2022-08-28T09:51:57.893Z,26.62
2022-08-28T09:57:03.666Z,26.25
2022-08-28T10:02:24.898Z,26.32
2022-08-28T10:07:31.169Z,27.78
2022-08-28T10:12:40.184Z,28.89
2022-08-28T10:17:58.366Z,28.67
2022-08-28T10:23:19.420Z,27.53
2022-08-28T10:28:49.133Z,27.52
2022-08-28T10:34:20.515Z,30.16
2022-08-28T10:39:26.025Z,32.09
2022-08-28T10:45:04.632Z,32.78
2022-08-28T10:50:40.162Z,29.24
2022-08-28T10:55:55.209Z,31.91
2022-08-28T11:01:04.663Z,29.38
2022-08-28T11:06:15.307Z,29.26
2022-08-28T11:11:46.837Z,30.02
2022-08-28T11:16:50.270Z,29.74
2022-08-28T11:22:02.284Z,29.49
2022-08-28T11:27:23.282Z,32.36
2022-08-28T11:32:28.845Z,32.74
2022-08-28T11:37:43.978Z,34.47
2022-08-28T11:42:50.199Z,35.23
2022-08-28T11:47:56.718Z,33.74
2022-08-28T11:53:27.363Z,33.91
2022-08-28T11:58:54.579Z,34.44
2022-08-28T12:04:08.472Z,33.42
2022-08-28T12:09:32.207Z,31.38
2022-08-28T12:14:41.163Z,30.24
2022-08-28T12:20:04.206Z,29.76
2022-08-28T12:25:31.917Z,29.09
2022-08-28T12:30:42.265Z,28.70
2022-08-28T12:35:45.055Z,28.30
2022-08-28T12:40:50.887Z,27.91
2022-08-28T12:45:56.812Z,27.83
2022-08-28T12:51:08.302Z,28.06
2022-08-28T12:56:17.139Z,27.70
2022-08-28T13:01:32.764Z,27.73
2022-08-28T13:06:38.649Z,28.74
2022-08-28T13:11:46.941Z,32.51
2022-08-28T13:16:49.521Z,32.54
2022-08-28T13:22:00.561Z,32.60
2022-08-28T13:27:24.407Z,33.34
2022-08-28T13:32:28.261Z,31.47
2022-08-28T13:37:53.319Z,29.11
2022-08-28T13:43:07.128Z,29.20
2022-08-28T13:48:11.197Z,31.79
2022-08-28T13:53:14.757Z,30.59
2022-08-28T13:58:17.905Z,32.32
2022-08-28T14:03:36.750Z,33.33
2022-08-28T14:08:40.828Z,33.43
2022-08-28T14:13:47.115Z,33.07
2022-08-28T14:19:00.257Z,33.64
2022-08-28T14:24:03.585Z,33.93
2022-08-28T14:29:08.889Z,33.54
2022-08-28T14:34:13.818Z,33.06
2022-08-28T14:39:17.000Z,33.68
2022-08-28T14:44:21.738Z,33.06
2022-08-28T14:49:25.950Z,32.66
2022-08-28T14:54:29.102Z,31.89
2022-08-28T14:59:33.116Z,31.86
2022-08-28T15:04:38.122Z,30.89
2022-08-28T15:09:42.105Z,30.59
2022-08-28T15:14:54.943Z,31.64
2022-08-28T15:20:04.915Z,31.44
2022-08-28T15:25:07.676Z,31.26
2022-08-28T15:30:11.627Z,31.66
2022-08-28T15:35:14.465Z,30.66
2022-08-28T15:40:36.238Z,30.08
2022-08-28T15:45:40.742Z,29.92
2022-08-28T15:50:43.857Z,29.29
2022-08-28T15:55:46.770Z,28.88
2022-08-28T16:00:50.132Z,28.43
2022-08-28T16:05:52.847Z,28.38
2022-08-28T16:10:56.296Z,28.30
2022-08-28T16:15:59.097Z,27.98
2022-08-28T16:21:04.934Z,27.75
2022-08-28T16:26:09.309Z,27.54
2022-08-28T16:31:19.214Z,27.50
2022-08-28T16:36:25.513Z,27.31
2022-08-28T16:41:29.094Z,27.19
2022-08-28T16:46:34.583Z,27.07
2022-08-28T16:51:37.922Z,26.93
2022-08-28T16:56:40.514Z,26.81
2022-08-28T17:01:43.118Z,26.77
2022-08-28T17:06:46.000Z,26.65
2022-08-28T17:11:52.079Z,26.68
2022-08-28T17:16:54.934Z,26.66
2022-08-28T17:22:16.449Z,26.64
2022-08-28T17:27:22.466Z,26.64
2022-08-28T17:32:25.967Z,26.66
2022-08-28T17:37:29.177Z,26.68
2022-08-28T17:42:31.728Z,26.64
2022-08-28T17:47:34.440Z,26.64
2022-08-28T17:52:37.171Z,26.64
2022-08-28T17:57:40.077Z,26.64
2022-08-28T18:02:43.370Z,26.55
2022-08-28T18:07:46.071Z,26.52
2022-08-28T18:12:48.925Z,26.51
2022-08-28T18:17:51.854Z,26.49
2022-08-28T18:22:54.409Z,26.50
2022-08-28T18:27:57.221Z,26.47
2022-08-28T18:33:00.533Z,26.44
2022-08-28T18:38:03.528Z,26.38
2022-08-28T18:43:06.085Z,26.13
2022-08-28T18:48:08.559Z,25.41
2022-08-28T18:53:11.034Z,24.83
2022-08-28T18:58:15.199Z,24.70
2022-08-28T19:03:18.290Z,24.51
2022-08-28T19:08:20.803Z,24.10
2022-08-28T19:13:23.507Z,23.84
2022-08-28T19:18:26.040Z,23.75
2022-08-28T19:23:28.923Z,23.60
2022-08-28T19:28:31.646Z,23.65
2022-08-28T19:33:34.744Z,23.75
2022-08-28T19:38:37.250Z,24.07
2022-08-28T19:43:43.414Z,25.04
2022-08-28T19:48:50.872Z,25.52
2022-08-28T19:53:58.366Z,25.63
2022-08-28T19:59:04.635Z,25.57
2022-08-28T20:04:08.309Z,24.91
2022-08-28T20:09:13.010Z,24.60
2022-08-28T20:14:17.565Z,24.93
2022-08-28T20:19:21.261Z,24.88
2022-08-28T20:24:25.177Z,25.10
2022-08-28T20:29:27.942Z,24.44
2022-08-28T20:34:30.679Z,24.84
2022-08-28T20:39:33.484Z,24.96
2022-08-28T20:44:36.469Z,24.66
2022-08-28T20:49:39.334Z,24.06
2022-08-28T20:54:42.469Z,23.65
2022-08-28T20:59:46.207Z,24.53
2022-08-28T21:04:49.321Z,24.90
2022-08-28T21:10:06.093Z,25.24
2022-08-28T21:15:12.647Z,24.70
2022-08-28T21:20:16.293Z,23.53
2022-08-28T21:25:22.060Z,23.93
2022-08-28T21:30:25.493Z,24.32
2022-08-28T21:35:33.005Z,24.39
2022-08-28T21:40:35.800Z,24.18
2022-08-28T21:45:38.487Z,23.41
2022-08-28T21:50:43.423Z,23.85
2022-08-28T21:55:53.873Z,24.36
2022-08-28T22:00:57.373Z,24.03
2022-08-28T22:06:00.215Z,23.61
2022-08-28T22:11:02.812Z,23.36
2022-08-28T22:16:06.563Z,22.90
2022-08-28T22:21:32.423Z,22.74
2022-08-28T22:26:35.802Z,22.79
2022-08-28T22:31:44.700Z,23.36
2022-08-28T22:36:48.680Z,23.40
2022-08-28T22:41:51.369Z,23.88
2022-08-28T22:46:54.067Z,24.16
2022-08-28T22:51:56.661Z,24.27
2022-08-28T22:56:59.352Z,23.98
2022-08-28T23:02:03.643Z,23.10
2022-08-28T23:07:06.959Z,22.70
2022-08-28T23:12:09.516Z,22.56
2022-08-28T23:17:12.093Z,22.54
2022-08-28T23:22:15.750Z,22.47
2022-08-28T23:32:41.352Z,23.61
2022-08-28T23:37:48.726Z,22.77
2022-08-28T23:42:55.710Z,22.71
2022-08-28T23:47:58.498Z,23.32
2022-08-28T23:53:05.038Z,23.69
2022-08-28T23:58:07.518Z,23.94
